Bulk Japan — D5GP4 — position and weather

sailwx.info

Track history (hours):
 
Tides and Currents Weather Stations Pressure Air Temp Water Temp Dewpoint Dewpoint Depression Visibility Wind Speed Wind Dir Waves Ship Positions

Bulk Japan

Last reported at 2018-Jul-22 01:00 UTC. Time now 2018-Jul-22 01:06 UTC.
Position N 55°11' E 014°16'.

Length 227 m; draft 6.4 m.

Type: Cargo ship. MMSI: 636016529.

Date/timePositionNaut miles runAvg speedWind from/ knotsBaromVisibWave heightAir tempDewpointWater temp
2018-Jul-22 01:00N 55°11' E 014°16'612.0
2018-Jul-22 00:30N 55°10' E 014°05'612.2
2018-Jul-22 00:00N 55°10' E 013°54'612.4
2018-Jul-21 23:31N 55°11' E 013°44'612.5
2018-Jul-21 23:00N 55°12' E 013°33'612.6
2018-Jul-21 22:30N 55°12' E 013°22'612.7
2018-Jul-21 22:00N 55°13' E 013°11'612.7
2018-Jul-21 21:30N 55°14' E 012°60'612.7
2018-Jul-21 21:00N 55°15' E 012°49'612.9
2018-Jul-21 20:30N 55°18' E 012°39'611.8
2018-Jul-21 20:00N 55°24' E 012°39'612.4
2018-Jul-21 19:30N 55°30' E 012°42'4 8.2
2018-Jul-21 19:01N 55°34' E 012°42'5 9.8
2018-Jul-21 18:30N 55°39' E 012°41'612.9
2018-Jul-21 18:01N 55°45' E 012°41'713.5
2018-Jul-21 17:31N 55°52' E 012°41'713.4
2018-Jul-21 17:00N 55°59' E 012°38'611.9
2018-Jul-21 16:30N 56°05' E 012°36'510.2
2018-Jul-21 16:00N 56°08' E 012°29'612.4
2018-Jul-21 15:30N 56°11' E 012°20'4611.8
2018-Jul-21 11:36N 56°53' E 011°46'112.3
2018-Jul-21 11:29N 56°55' E 011°46'612.4
2018-Jul-21 10:59N 57°00' E 011°42'612.4
2018-Jul-21 10:29N 57°06' E 011°38'612.0
2018-Jul-21 10:00N 57°12' E 011°35'611.9
2018-Jul-21 09:31N 57°17' E 011°31'612.0
2018-Jul-21 09:01N 57°23' E 011°28'612.3
2018-Jul-21 08:31N 57°28' E 011°22'612.4
2018-Jul-21 08:01N 57°33' E 011°13'612.1
2018-Jul-21 07:30N 57°37' E 011°05'612.7
2018-Jul-21 07:00N 57°41' E 010°57'612.4
2018-Jul-21 06:30N 57°46' E 010°49'612.8
2018-Jul-21 06:00N 57°50' E 010°39'713.8
2018-Jul-21 05:30N 57°51' E 010°27'713.2
2018-Jul-21 05:00N 57°50' E 010°14'612.7
2018-Jul-21 04:30N 57°50' E 010°02'612.8
2018-Jul-21 04:00N 57°49' E 009°51'612.9
2018-Jul-21 03:30N 57°47' E 009°39'612.7
2018-Jul-21 03:00N 57°45' E 009°28'712.9
2018-Jul-21 02:30N 57°43' E 009°16'613.0
2018-Jul-21 02:00N 57°41' E 009°05'713.1
2018-Jul-21 01:30N 57°38' E 008°53'713.2
2018-Jul-21 01:00N 57°35' E 008°43'713.2
2018-Jul-21 00:30N 57°31' E 008°33'713.2
2018-Jul-21 00:00N 57°27' E 008°23'713.0
2018-Jul-20 23:29N 57°24' E 008°12'913.4
2018-Jul-20 22:50N 57°19' E 007°58'613.9
2018-Jul-20 22:26N 57°17' E 007°49'613.2
2018-Jul-20 21:58N 57°14' E 007°39'613.1
2018-Jul-20 21:30N 57°10' E 007°30'612.9
2018-Jul-20 21:01N 57°06' E 007°21'612.8
2018-Jul-20 20:30N 57°03' E 007°10'612.5
2018-Jul-20 20:00N 57°00' E 007°00'612.2
2018-Jul-20 19:30N 56°54' E 006°59'712.7
2018-Jul-20 18:58N 56°47' E 006°58'612.1
2018-Jul-20 18:30N 56°42' E 006°57'612.1
2018-Jul-20 18:01N 56°36' E 006°56'612.4
2018-Jul-20 17:30N 56°30' E 006°54'5612.2
2018-Jul-20 12:56N 55°34' E 006°46'4111.6
2018-Jul-20 09:26N 54°55' E 007°04'1613.0
2018-Jul-20 08:11N 54°40' E 007°16'313.2
2018-Jul-20 07:58N 54°38' E 007°18'613.1
2018-Jul-20 07:30N 54°32' E 007°23'713.0
2018-Jul-20 07:00N 54°26' E 007°28'612.9
2018-Jul-20 06:30N 54°21' E 007°33'613.1
2018-Jul-20 06:00N 54°15' E 007°39'712.9
2018-Jul-20 05:27N 54°09' E 007°45'612.4
2018-Jul-20 04:58N 54°05' E 007°53'612.3
2018-Jul-20 04:30N 54°02' E 008°01'611.9
2018-Jul-20 04:01N 54°00' E 008°11'611.2
2018-Jul-20 03:30N 53°60' E 008°20'611.1
2018-Jul-20 03:01N 53°59' E 008°29'510.6
2018-Jul-20 02:31N 53°57' E 008°38'510.5
2018-Jul-20 02:01N 53°53' E 008°43'611.5
2018-Jul-20 01:30N 53°50' E 008°52'815.1
2018-Jul-20 01:00N 53°52' E 009°04'5 9.9
2018-Jul-20 00:30N 53°53' E 009°12'713.3
2018-Jul-20 00:00N 53°49' E 009°22'714.1
2018-Jul-19 23:30N 53°43' E 009°28'713.7
2018-Jul-19 23:00N 53°37' E 009°33'713.2
2018-Jul-19 22:31N 53°34' E 009°43'612.0
2018-Jul-19 22:01N 53°33' E 009°53'3 5.3
2018-Jul-19 21:30N 53°31' E 009°56'0 0.2
2018-Jul-19 20:59N 53°31' E 009°56'0 0.0
2018-Jul-19 20:29N 53°31' E 009°56'0 0.0
2018-Jul-19 19:59N 53°31' E 009°56'0 0.0
2018-Jul-19 19:29N 53°31' E 009°56'0 0.0
2018-Jul-19 18:59N 53°31' E 009°56'0 0.0
2018-Jul-19 18:29N 53°31' E 009°56'0 0.0
2018-Jul-19 17:59N 53°31' E 009°56'0 0.0
2018-Jul-19 17:29N 53°31' E 009°56'0 0.0
2018-Jul-19 16:59N 53°31' E 009°56'0 0.0
2018-Jul-19 16:29N 53°31' E 009°56'0 0.0
2018-Jul-19 15:59N 53°31' E 009°56'0 0.0
2018-Jul-19 15:29N 53°31' E 009°56'0 0.0
2018-Jul-19 14:59N 53°31' E 009°56'0 0.0
2018-Jul-19 14:29N 53°31' E 009°56'0 0.0
2018-Jul-19 13:29N 53°31' E 009°56'0 0.0
2018-Jul-19 12:59N 53°31' E 009°56'0 0.0
2018-Jul-19 12:29N 53°31' E 009°56'0 0.0
2018-Jul-19 11:59N 53°31' E 009°56'0 0.0
2018-Jul-19 11:29N 53°31' E 009°56'0 0.0
2018-Jul-19 10:56N 53°31' E 009°56'0 0.0
2018-Jul-19 10:29N 53°31' E 009°56'0 0.0
2018-Jul-19 09:59N 53°31' E 009°56'0 0.0
2018-Jul-19 09:29N 53°31' E 009°56'0 0.0
2018-Jul-19 08:59N 53°31' E 009°56'0 0.0
2018-Jul-19 08:29N 53°31' E 009°56'0 0.0
2018-Jul-19 07:59N 53°31' E 009°56'0 0.0
2018-Jul-19 07:29N 53°31' E 009°56'0 0.0
2018-Jul-19 06:59N 53°31' E 009°56'0 0.0
2018-Jul-19 06:29N 53°31' E 009°56'0 0.0
2018-Jul-19 05:59N 53°31' E 009°56'0 0.0
2018-Jul-19 05:29N 53°31' E 009°56'0 0.0
2018-Jul-19 04:59N 53°31' E 009°56'0 0.0
2018-Jul-19 04:29N 53°31' E 009°56'0 0.0
2018-Jul-19 03:59N 53°31' E 009°56'0 0.0
2018-Jul-19 03:29N 53°31' E 009°56'0 0.0
2018-Jul-19 02:59N 53°31' E 009°56'0 0.0
2018-Jul-19 02:29N 53°31' E 009°56'0 0.0
2018-Jul-19 01:59N 53°31' E 009°56'0 0.0
2018-Jul-19 01:29N 53°31' E 009°56'0 0.0
2018-Jul-19 00:59N 53°31' E 009°56'0 0.0
2018-Jul-19 00:29N 53°31' E 009°56'0 0.0
2018-Jul-18 23:59N 53°31' E 009°56'0 0.0
2018-Jul-18 23:29N 53°31' E 009°56'0 0.0
2018-Jul-18 22:59N 53°31' E 009°56'0 0.0
2018-Jul-18 22:29N 53°31' E 009°56'0 0.0
2018-Jul-18 21:59N 53°31' E 009°56'0 0.0
2018-Jul-18 21:29N 53°31' E 009°56'0 0.0
2018-Jul-18 20:59N 53°31' E 009°56'0 0.0
2018-Jul-18 20:29N 53°31' E 009°56'0 0.0
2018-Jul-18 19:59N 53°31' E 009°56'0 0.0
2018-Jul-18 19:29N 53°31' E 009°56'0 0.0
2018-Jul-18 18:59N 53°31' E 009°56'0 0.0
2018-Jul-18 18:29N 53°31' E 009°56'0 0.0
2018-Jul-18 17:59N 53°31' E 009°56'0 0.0
2018-Jul-18 17:29N 53°31' E 009°56'0 0.0
2018-Jul-18 16:59N 53°31' E 009°56'0 0.0
2018-Jul-18 16:29N 53°31' E 009°56'0 0.0
2018-Jul-18 15:59N 53°31' E 009°56'0 0.0
2018-Jul-18 15:29N 53°31' E 009°56'0 0.0
2018-Jul-18 14:59N 53°31' E 009°56'0 0.0
2018-Jul-18 14:29N 53°31' E 009°56'0 0.0
2018-Jul-18 13:29N 53°31' E 009°56'0 0.0
2018-Jul-18 12:59N 53°31' E 009°56'0 0.0
2018-Jul-18 12:29N 53°31' E 009°56'0 0.0
2018-Jul-18 11:56N 53°31' E 009°56'0 0.0
2018-Jul-18 11:29N 53°31' E 009°56'0 0.0
2018-Jul-18 10:29N 53°31' E 009°56'0 0.0
2018-Jul-18 09:59N 53°31' E 009°56'0 0.0
2018-Jul-18 09:29N 53°31' E 009°56'0 0.0
2018-Jul-18 08:59N 53°31' E 009°56'0 0.0
2018-Jul-18 08:29N 53°31' E 009°56'0 0.0
2018-Jul-18 07:59N 53°31' E 009°56'0 0.0
2018-Jul-18 07:23N 53°31' E 009°56'0 0.0
2018-Jul-18 06:59N 53°31' E 009°56'0 0.0
2018-Jul-18 06:29N 53°31' E 009°56'0 0.1
2018-Jul-18 06:00N 53°31' E 009°56'1 2.6
2018-Jul-18 05:30N 53°32' E 009°56'3 6.9
2018-Jul-18 05:00N 53°33' E 009°50'510.4
2018-Jul-18 04:30N 53°34' E 009°42'611.3
2018-Jul-18 04:00N 53°37' E 009°33'510.7
2018-Jul-18 03:30N 53°42' E 009°30'612.0
2018-Jul-18 03:00N 53°47' E 009°24'612.9
2018-Jul-18 02:30N 53°52' E 009°17'611.0
2018-Jul-18 02:00N 53°53' E 009°08'611.2
2018-Jul-18 01:30N 53°51' E 008°59'612.8
2018-Jul-18 01:00N 53°50' E 008°48'612.1
2018-Jul-18 00:30N 53°55' E 008°41'613.0
2018-Jul-18 00:01N 53°58' E 008°32'713.9
2018-Jul-17 23:30N 53°59' E 008°20'713.6
2018-Jul-17 22:59N 53°59' E 008°08'712.7
2018-Jul-17 22:27N 53°59' E 007°57'4 2.6
2018-Jul-17 20:48N 53°60' E 007°49'0 0.5
2018-Jul-17 20:30N 53°60' E 007°50'0 0.8
2018-Jul-17 20:00N 53°60' E 007°50'0 0.7
2018-Jul-17 19:27N 53°60' E 007°51'1 1.4
2018-Jul-17 19:00N 53°60' E 007°52'1 2.7
2018-Jul-17 18:30N 53°59' E 007°54'5 4.9
2018-Jul-17 17:24N 53°57' E 007°45'2 6.2
2018-Jul-17 17:00N 53°57' E 007°41'8311.2
2018-Jul-17 09:35N 53°35' E 005°26'212.0
2018-Jul-17 09:24N 53°34' E 005°22'512.1
2018-Jul-17 08:59N 53°32' E 005°14'712.2
2018-Jul-17 08:23N 53°30' E 005°03'512.3
2018-Jul-17 08:00N 53°28' E 004°55'612.3
2018-Jul-17 07:30N 53°25' E 004°46'612.1
2018-Jul-17 07:00N 53°21' E 004°39'612.6
2018-Jul-17 06:30N 53°15' E 004°35'612.5
2018-Jul-17 06:00N 53°09' E 004°30'612.1
2018-Jul-17 05:30N 53°04' E 004°25'611.7
2018-Jul-17 05:00N 52°59' E 004°20'611.4
2018-Jul-17 04:30N 52°54' E 004°17'611.0
2018-Jul-17 04:00N 52°49' E 004°12'510.5
2018-Jul-17 03:30N 52°45' E 004°06'510.3
2018-Jul-17 03:00N 52°41' E 004°00'510.1
2018-Jul-17 02:30N 52°38' E 003°55'510.0
2018-Jul-17 02:00N 52°34' E 003°49'5 9.9
2018-Jul-17 01:30N 52°31' E 003°43'5 9.7
2018-Jul-17 01:00N 52°27' E 003°38'5 9.5
2018-Jul-17 00:29N 52°23' E 003°32'9 9.0
2018-Jul-16 23:30N 52°17' E 003°22'5 9.1
2018-Jul-16 23:00N 52°14' E 003°17'4 9.0
2018-Jul-16 22:30N 52°11' E 003°12'5 9.4
2018-Jul-16 22:00N 52°07' E 003°07'5 9.9
2018-Jul-16 21:30N 52°04' E 003°01'510.2
2018-Jul-16 21:00N 51°60' E 002°55'510.6
2018-Jul-16 20:30N 51°56' E 002°49'611.0
2018-Jul-16 20:00N 51°52' E 002°43'611.4
2018-Jul-16 19:30N 51°48' E 002°37'611.7
2018-Jul-16 19:00N 51°43' E 002°31'611.9
2018-Jul-16 18:30N 51°39' E 002°25'612.2
2018-Jul-16 18:00N 51°34' E 002°18'612.6
2018-Jul-16 17:30N 51°29' E 002°12'613.0
2018-Jul-16 17:00N 51°25' E 002°05'612.9
2018-Jul-16 16:30N 51°20' E 001°58'713.3
2018-Jul-16 16:01N 51°14' E 001°51'713.8
2018-Jul-16 15:30N 51°09' E 001°44'714.2
2018-Jul-16 15:00N 51°04' E 001°37'714.1
2018-Jul-16 14:30N 50°58' E 001°30'713.7
2018-Jul-16 14:00N 50°52' E 001°26'713.0
2018-Jul-16 13:30N 50°46' E 001°23'611.6
2018-Jul-16 13:01N 50°41' E 001°18'612.0
2018-Jul-16 12:30N 50°37' E 001°11'612.1
2018-Jul-16 12:00N 50°33' E 001°03'612.2
2018-Jul-16 11:30N 50°30' E 000°55'612.6
2018-Jul-16 11:00N 50°28' E 000°46'712.8
2018-Jul-16 10:29N 50°25' E 000°36'612.6
2018-Jul-16 10:01N 50°23' E 000°27'612.3
2018-Jul-16 09:30N 50°21' E 000°18'611.8
2018-Jul-16 09:00N 50°19' E 000°09'611.3
2018-Jul-16 08:30N 50°18' E 000°01'510.7
2018-Jul-16 08:00N 50°17' W 000°07'510.4
2018-Jul-16 07:30N 50°16' W 000°15'5 9.8
2018-Jul-16 07:00N 50°14' W 000°23'5 9.3
2018-Jul-16 06:30N 50°13' W 000°30'4 8.9
2018-Jul-16 06:00N 50°12' W 000°37'4 8.3
2018-Jul-16 05:30N 50°11' W 000°43'4 7.9
2018-Jul-16 05:00N 50°10' W 000°49'4 7.7
2018-Jul-16 04:30N 50°09' W 000°55'4 7.4
2018-Jul-16 04:00N 50°08' W 001°00'4 7.3
2018-Jul-16 03:30N 50°07' W 001°06'4 7.5
2018-Jul-16 03:00N 50°06' W 001°11'5 8.2
2018-Jul-16 02:27N 50°05' W 001°18'4 8.7
2018-Jul-16 02:00N 50°04' W 001°24'5 9.7
2018-Jul-16 01:28N 50°02' W 001°32'510.6
2018-Jul-16 01:00N 50°01' W 001°39'611.5
2018-Jul-16 00:30N 49°60' W 001°48'612.4
2018-Jul-16 00:00N 49°58' W 001°57'1513.4
2018-Jul-15 22:52N 49°55' W 002°20'513.7
2018-Jul-15 22:30N 49°53' W 002°28'713.5
2018-Jul-15 22:00N 49°52' W 002°38'713.4
2018-Jul-15 21:30N 49°50' W 002°48'713.2
2018-Jul-15 21:00N 49°47' W 002°57'713.3
2018-Jul-15 20:30N 49°44' W 003°06'613.0
2018-Jul-15 20:00N 49°41' W 003°15'613.0
2018-Jul-15 19:30N 49°37' W 003°23'712.8
2018-Jul-15 19:00N 49°34' W 003°32'612.9
2018-Jul-15 18:30N 49°31' W 003°40'713.1
2018-Jul-15 18:00N 49°27' W 003°49'612.8
2018-Jul-15 17:30N 49°24' W 003°58'2410.7
2018-Jul-15 15:14N 49°11' W 004°29'210.6
2018-Jul-15 15:00N 49°10' W 004°33'510.3
2018-Jul-15 14:30N 49°08' W 004°40'11 9.5
2018-Jul-15 13:18N 49°03' W 004°55'4 9.1
2018-Jul-15 12:54N 49°01' W 004°60'4 9.2
2018-Jul-15 12:30N 48°59' W 005°04'5 9.0
2018-Jul-15 12:00N 48°57' W 005°10'4 8.8
2018-Jul-15 11:30N 48°54' W 005°16'4 9.0
2018-Jul-15 11:00N 48°52' W 005°22'5 9.2
2018-Jul-15 10:30N 48°49' W 005°28'5 9.6
2018-Jul-15 10:00N 48°47' W 005°34'5 9.7
2018-Jul-15 09:30N 48°44' W 005°39'5 9.7
2018-Jul-15 09:00N 48°40' W 005°44'510.2
2018-Jul-15 08:30N 48°36' W 005°49'510.3
2018-Jul-15 07:59N 48°31' W 005°53'6912.0
2018-Jul-15 02:12N 47°33' W 006°48'511.7
2018-Jul-15 01:44N 47°28' W 006°52'1210.8
2018-Jul-15 00:38N 47°17' W 007°01'710.9
2018-Jul-15 00:02N 47°12' W 007°07'  
Track history (hours):
 
Tides and Currents Weather Stations Pressure Air Temp Water Temp Dewpoint Dewpoint Depression Visibility Wind Speed Wind Dir Waves Ship Positions

Bulk Japan

Last reported at 2018-Jul-22 01:00 UTC. Time now 2018-Jul-22 01:06 UTC.
Position N 55°11' E 014°16'.

Length 227 m; draft 6.4 m.

Type: Cargo ship. MMSI: 636016529.

Date/timePositionNaut miles runAvg speedWind from/ knotsBaromVisibWave heightAir tempDewpointWater temp
2018-Jul-22 01:00N 55°11' E 014°16'612.0
2018-Jul-22 00:30N 55°10' E 014°05'612.2
2018-Jul-22 00:00N 55°10' E 013°54'612.4
2018-Jul-21 23:31N 55°11' E 013°44'612.5
2018-Jul-21 23:00N 55°12' E 013°33'612.6
2018-Jul-21 22:30N 55°12' E 013°22'612.7
2018-Jul-21 22:00N 55°13' E 013°11'612.7
2018-Jul-21 21:30N 55°14' E 012°60'612.7
2018-Jul-21 21:00N 55°15' E 012°49'612.9
2018-Jul-21 20:30N 55°18' E 012°39'611.8
2018-Jul-21 20:00N 55°24' E 012°39'612.4
2018-Jul-21 19:30N 55°30' E 012°42'4 8.2
2018-Jul-21 19:01N 55°34' E 012°42'5 9.8
2018-Jul-21 18:30N 55°39' E 012°41'612.9
2018-Jul-21 18:01N 55°45' E 012°41'713.5
2018-Jul-21 17:31N 55°52' E 012°41'713.4
2018-Jul-21 17:00N 55°59' E 012°38'611.9
2018-Jul-21 16:30N 56°05' E 012°36'510.2
2018-Jul-21 16:00N 56°08' E 012°29'612.4
2018-Jul-21 15:30N 56°11' E 012°20'4611.8
2018-Jul-21 11:36N 56°53' E 011°46'112.3
2018-Jul-21 11:29N 56°55' E 011°46'612.4
2018-Jul-21 10:59N 57°00' E 011°42'612.4
2018-Jul-21 10:29N 57°06' E 011°38'612.0
2018-Jul-21 10:00N 57°12' E 011°35'611.9
2018-Jul-21 09:31N 57°17' E 011°31'612.0
2018-Jul-21 09:01N 57°23' E 011°28'612.3
2018-Jul-21 08:31N 57°28' E 011°22'612.4
2018-Jul-21 08:01N 57°33' E 011°13'612.1
2018-Jul-21 07:30N 57°37' E 011°05'612.7
2018-Jul-21 07:00N 57°41' E 010°57'612.4
2018-Jul-21 06:30N 57°46' E 010°49'612.8
2018-Jul-21 06:00N 57°50' E 010°39'713.8
2018-Jul-21 05:30N 57°51' E 010°27'713.2
2018-Jul-21 05:00N 57°50' E 010°14'612.7
2018-Jul-21 04:30N 57°50' E 010°02'612.8
2018-Jul-21 04:00N 57°49' E 009°51'612.9
2018-Jul-21 03:30N 57°47' E 009°39'612.7
2018-Jul-21 03:00N 57°45' E 009°28'712.9
2018-Jul-21 02:30N 57°43' E 009°16'613.0
2018-Jul-21 02:00N 57°41' E 009°05'713.1
2018-Jul-21 01:30N 57°38' E 008°53'713.2
2018-Jul-21 01:00N 57°35' E 008°43'713.2
2018-Jul-21 00:30N 57°31' E 008°33'713.2
2018-Jul-21 00:00N 57°27' E 008°23'713.0
2018-Jul-20 23:29N 57°24' E 008°12'913.4
2018-Jul-20 22:50N 57°19' E 007°58'613.9
2018-Jul-20 22:26N 57°17' E 007°49'613.2
2018-Jul-20 21:58N 57°14' E 007°39'613.1
2018-Jul-20 21:30N 57°10' E 007°30'612.9
2018-Jul-20 21:01N 57°06' E 007°21'612.8
2018-Jul-20 20:30N 57°03' E 007°10'612.5
2018-Jul-20 20:00N 57°00' E 007°00'612.2
2018-Jul-20 19:30N 56°54' E 006°59'712.7
2018-Jul-20 18:58N 56°47' E 006°58'612.1
2018-Jul-20 18:30N 56°42' E 006°57'612.1
2018-Jul-20 18:01N 56°36' E 006°56'612.4
2018-Jul-20 17:30N 56°30' E 006°54'5612.2
2018-Jul-20 12:56N 55°34' E 006°46'4111.6
2018-Jul-20 09:26N 54°55' E 007°04'1613.0
2018-Jul-20 08:11N 54°40' E 007°16'313.2
2018-Jul-20 07:58N 54°38' E 007°18'613.1
2018-Jul-20 07:30N 54°32' E 007°23'713.0
2018-Jul-20 07:00N 54°26' E 007°28'612.9
2018-Jul-20 06:30N 54°21' E 007°33'613.1
2018-Jul-20 06:00N 54°15' E 007°39'712.9
2018-Jul-20 05:27N 54°09' E 007°45'612.4
2018-Jul-20 04:58N 54°05' E 007°53'612.3
2018-Jul-20 04:30N 54°02' E 008°01'611.9
2018-Jul-20 04:01N 54°00' E 008°11'611.2
2018-Jul-20 03:30N 53°60' E 008°20'611.1
2018-Jul-20 03:01N 53°59' E 008°29'510.6
2018-Jul-20 02:31N 53°57' E 008°38'510.5
2018-Jul-20 02:01N 53°53' E 008°43'611.5
2018-Jul-20 01:30N 53°50' E 008°52'815.1
2018-Jul-20 01:00N 53°52' E 009°04'5 9.9
2018-Jul-20 00:30N 53°53' E 009°12'713.3
2018-Jul-20 00:00N 53°49' E 009°22'714.1
2018-Jul-19 23:30N 53°43' E 009°28'713.7
2018-Jul-19 23:00N 53°37' E 009°33'713.2
2018-Jul-19 22:31N 53°34' E 009°43'612.0
2018-Jul-19 22:01N 53°33' E 009°53'3 5.3
2018-Jul-19 21:30N 53°31' E 009°56'0 0.2
2018-Jul-19 20:59N 53°31' E 009°56'0 0.0
2018-Jul-19 20:29N 53°31' E 009°56'0 0.0
2018-Jul-19 19:59N 53°31' E 009°56'0 0.0
2018-Jul-19 19:29N 53°31' E 009°56'0 0.0
2018-Jul-19 18:59N 53°31' E 009°56'0 0.0
2018-Jul-19 18:29N 53°31' E 009°56'0 0.0
2018-Jul-19 17:59N 53°31' E 009°56'0 0.0
2018-Jul-19 17:29N 53°31' E 009°56'0 0.0
2018-Jul-19 16:59N 53°31' E 009°56'0 0.0
2018-Jul-19 16:29N 53°31' E 009°56'0 0.0
2018-Jul-19 15:59N 53°31' E 009°56'0 0.0
2018-Jul-19 15:29N 53°31' E 009°56'0 0.0
2018-Jul-19 14:59N 53°31' E 009°56'0 0.0
2018-Jul-19 14:29N 53°31' E 009°56'0 0.0
2018-Jul-19 13:29N 53°31' E 009°56'0 0.0
2018-Jul-19 12:59N 53°31' E 009°56'0 0.0
2018-Jul-19 12:29N 53°31' E 009°56'0 0.0
2018-Jul-19 11:59N 53°31' E 009°56'0 0.0
2018-Jul-19 11:29N 53°31' E 009°56'0 0.0
2018-Jul-19 10:56N 53°31' E 009°56'0 0.0
2018-Jul-19 10:29N 53°31' E 009°56'0 0.0
2018-Jul-19 09:59N 53°31' E 009°56'0 0.0
2018-Jul-19 09:29N 53°31' E 009°56'0 0.0
2018-Jul-19 08:59N 53°31' E 009°56'0 0.0
2018-Jul-19 08:29N 53°31' E 009°56'0 0.0
2018-Jul-19 07:59N 53°31' E 009°56'0 0.0
2018-Jul-19 07:29N 53°31' E 009°56'0 0.0
2018-Jul-19 06:59N 53°31' E 009°56'0 0.0
2018-Jul-19 06:29N 53°31' E 009°56'0 0.0
2018-Jul-19 05:59N 53°31' E 009°56'0 0.0
2018-Jul-19 05:29N 53°31' E 009°56'0 0.0
2018-Jul-19 04:59N 53°31' E 009°56'0 0.0
2018-Jul-19 04:29N 53°31' E 009°56'0 0.0
2018-Jul-19 03:59N 53°31' E 009°56'0 0.0
2018-Jul-19 03:29N 53°31' E 009°56'0 0.0
2018-Jul-19 02:59N 53°31' E 009°56'0 0.0
2018-Jul-19 02:29N 53°31' E 009°56'0 0.0
2018-Jul-19 01:59N 53°31' E 009°56'0 0.0
2018-Jul-19 01:29N 53°31' E 009°56'0 0.0
2018-Jul-19 00:59N 53°31' E 009°56'0 0.0
2018-Jul-19 00:29N 53°31' E 009°56'0 0.0
2018-Jul-18 23:59N 53°31' E 009°56'0 0.0
2018-Jul-18 23:29N 53°31' E 009°56'0 0.0
2018-Jul-18 22:59N 53°31' E 009°56'0 0.0
2018-Jul-18 22:29N 53°31' E 009°56'0 0.0
2018-Jul-18 21:59N 53°31' E 009°56'0 0.0
2018-Jul-18 21:29N 53°31' E 009°56'0 0.0
2018-Jul-18 20:59N 53°31' E 009°56'0 0.0
2018-Jul-18 20:29N 53°31' E 009°56'0 0.0
2018-Jul-18 19:59N 53°31' E 009°56'0 0.0
2018-Jul-18 19:29N 53°31' E 009°56'0 0.0
2018-Jul-18 18:59N 53°31' E 009°56'0 0.0
2018-Jul-18 18:29N 53°31' E 009°56'0 0.0
2018-Jul-18 17:59N 53°31' E 009°56'0 0.0
2018-Jul-18 17:29N 53°31' E 009°56'0 0.0
2018-Jul-18 16:59N 53°31' E 009°56'0 0.0
2018-Jul-18 16:29N 53°31' E 009°56'0 0.0
2018-Jul-18 15:59N 53°31' E 009°56'0 0.0
2018-Jul-18 15:29N 53°31' E 009°56'0 0.0
2018-Jul-18 14:59N 53°31' E 009°56'0 0.0
2018-Jul-18 14:29N 53°31' E 009°56'0 0.0
2018-Jul-18 13:29N 53°31' E 009°56'0 0.0
2018-Jul-18 12:59N 53°31' E 009°56'0 0.0
2018-Jul-18 12:29N 53°31' E 009°56'0 0.0
2018-Jul-18 11:56N 53°31' E 009°56'0 0.0
2018-Jul-18 11:29N 53°31' E 009°56'0 0.0
2018-Jul-18 10:29N 53°31' E 009°56'0 0.0
2018-Jul-18 09:59N 53°31' E 009°56'0 0.0
2018-Jul-18 09:29N 53°31' E 009°56'0 0.0
2018-Jul-18 08:59N 53°31' E 009°56'0 0.0
2018-Jul-18 08:29N 53°31' E 009°56'0 0.0
2018-Jul-18 07:59N 53°31' E 009°56'0 0.0
2018-Jul-18 07:23N 53°31' E 009°56'0 0.0
2018-Jul-18 06:59N 53°31' E 009°56'0 0.0
2018-Jul-18 06:29N 53°31' E 009°56'0 0.1
2018-Jul-18 06:00N 53°31' E 009°56'1 2.6
2018-Jul-18 05:30N 53°32' E 009°56'3 6.9
2018-Jul-18 05:00N 53°33' E 009°50'510.4
2018-Jul-18 04:30N 53°34' E 009°42'611.3
2018-Jul-18 04:00N 53°37' E 009°33'510.7
2018-Jul-18 03:30N 53°42' E 009°30'612.0
2018-Jul-18 03:00N 53°47' E 009°24'612.9
2018-Jul-18 02:30N 53°52' E 009°17'611.0
2018-Jul-18 02:00N 53°53' E 009°08'611.2
2018-Jul-18 01:30N 53°51' E 008°59'612.8
2018-Jul-18 01:00N 53°50' E 008°48'612.1
2018-Jul-18 00:30N 53°55' E 008°41'613.0
2018-Jul-18 00:01N 53°58' E 008°32'713.9
2018-Jul-17 23:30N 53°59' E 008°20'713.6
2018-Jul-17 22:59N 53°59' E 008°08'712.7
2018-Jul-17 22:27N 53°59' E 007°57'4 2.6
2018-Jul-17 20:48N 53°60' E 007°49'0 0.5
2018-Jul-17 20:30N 53°60' E 007°50'0 0.8
2018-Jul-17 20:00N 53°60' E 007°50'0 0.7
2018-Jul-17 19:27N 53°60' E 007°51'1 1.4
2018-Jul-17 19:00N 53°60' E 007°52'1 2.7
2018-Jul-17 18:30N 53°59' E 007°54'5 4.9
2018-Jul-17 17:24N 53°57' E 007°45'2 6.2
2018-Jul-17 17:00N 53°57' E 007°41'8311.2
2018-Jul-17 09:35N 53°35' E 005°26'212.0
2018-Jul-17 09:24N 53°34' E 005°22'512.1
2018-Jul-17 08:59N 53°32' E 005°14'712.2
2018-Jul-17 08:23N 53°30' E 005°03'512.3
2018-Jul-17 08:00N 53°28' E 004°55'612.3
2018-Jul-17 07:30N 53°25' E 004°46'612.1
2018-Jul-17 07:00N 53°21' E 004°39'612.6
2018-Jul-17 06:30N 53°15' E 004°35'612.5
2018-Jul-17 06:00N 53°09' E 004°30'612.1
2018-Jul-17 05:30N 53°04' E 004°25'611.7
2018-Jul-17 05:00N 52°59' E 004°20'611.4
2018-Jul-17 04:30N 52°54' E 004°17'611.0
2018-Jul-17 04:00N 52°49' E 004°12'510.5
2018-Jul-17 03:30N 52°45' E 004°06'510.3
2018-Jul-17 03:00N 52°41' E 004°00'510.1
2018-Jul-17 02:30N 52°38' E 003°55'510.0
2018-Jul-17 02:00N 52°34' E 003°49'5 9.9
2018-Jul-17 01:30N 52°31' E 003°43'5 9.7
2018-Jul-17 01:00N 52°27' E 003°38'5 9.5
2018-Jul-17 00:29N 52°23' E 003°32'9 9.0
2018-Jul-16 23:30N 52°17' E 003°22'5 9.1
2018-Jul-16 23:00N 52°14' E 003°17'4 9.0
2018-Jul-16 22:30N 52°11' E 003°12'5 9.4
2018-Jul-16 22:00N 52°07' E 003°07'5 9.9
2018-Jul-16 21:30N 52°04' E 003°01'510.2
2018-Jul-16 21:00N 51°60' E 002°55'510.6
2018-Jul-16 20:30N 51°56' E 002°49'611.0
2018-Jul-16 20:00N 51°52' E 002°43'611.4
2018-Jul-16 19:30N 51°48' E 002°37'611.7
2018-Jul-16 19:00N 51°43' E 002°31'611.9
2018-Jul-16 18:30N 51°39' E 002°25'612.2
2018-Jul-16 18:00N 51°34' E 002°18'612.6
2018-Jul-16 17:30N 51°29' E 002°12'613.0
2018-Jul-16 17:00N 51°25' E 002°05'612.9
2018-Jul-16 16:30N 51°20' E 001°58'713.3
2018-Jul-16 16:01N 51°14' E 001°51'713.8
2018-Jul-16 15:30N 51°09' E 001°44'714.2
2018-Jul-16 15:00N 51°04' E 001°37'714.1
2018-Jul-16 14:30N 50°58' E 001°30'713.7
2018-Jul-16 14:00N 50°52' E 001°26'713.0
2018-Jul-16 13:30N 50°46' E 001°23'611.6
2018-Jul-16 13:01N 50°41' E 001°18'612.0
2018-Jul-16 12:30N 50°37' E 001°11'612.1
2018-Jul-16 12:00N 50°33' E 001°03'612.2
2018-Jul-16 11:30N 50°30' E 000°55'612.6
2018-Jul-16 11:00N 50°28' E 000°46'712.8
2018-Jul-16 10:29N 50°25' E 000°36'612.6
2018-Jul-16 10:01N 50°23' E 000°27'612.3
2018-Jul-16 09:30N 50°21' E 000°18'611.8
2018-Jul-16 09:00N 50°19' E 000°09'611.3
2018-Jul-16 08:30N 50°18' E 000°01'510.7
2018-Jul-16 08:00N 50°17' W 000°07'510.4
2018-Jul-16 07:30N 50°16' W 000°15'5 9.8
2018-Jul-16 07:00N 50°14' W 000°23'5 9.3
2018-Jul-16 06:30N 50°13' W 000°30'4 8.9
2018-Jul-16 06:00N 50°12' W 000°37'4 8.3
2018-Jul-16 05:30N 50°11' W 000°43'4 7.9
2018-Jul-16 05:00N 50°10' W 000°49'4 7.7
2018-Jul-16 04:30N 50°09' W 000°55'4 7.4
2018-Jul-16 04:00N 50°08' W 001°00'4 7.3
2018-Jul-16 03:30N 50°07' W 001°06'4 7.5
2018-Jul-16 03:00N 50°06' W 001°11'5 8.2
2018-Jul-16 02:27N 50°05' W 001°18'4 8.7
2018-Jul-16 02:00N 50°04' W 001°24'5 9.7
2018-Jul-16 01:28N 50°02' W 001°32'510.6
2018-Jul-16 01:00N 50°01' W 001°39'611.5
2018-Jul-16 00:30N 49°60' W 001°48'612.4
2018-Jul-16 00:00N 49°58' W 001°57'1513.4
2018-Jul-15 22:52N 49°55' W 002°20'513.7
2018-Jul-15 22:30N 49°53' W 002°28'713.5
2018-Jul-15 22:00N 49°52' W 002°38'713.4
2018-Jul-15 21:30N 49°50' W 002°48'713.2
2018-Jul-15 21:00N 49°47' W 002°57'713.3
2018-Jul-15 20:30N 49°44' W 003°06'613.0
2018-Jul-15 20:00N 49°41' W 003°15'613.0
2018-Jul-15 19:30N 49°37' W 003°23'712.8
2018-Jul-15 19:00N 49°34' W 003°32'612.9
2018-Jul-15 18:30N 49°31' W 003°40'713.1
2018-Jul-15 18:00N 49°27' W 003°49'612.8
2018-Jul-15 17:30N 49°24' W 003°58'2410.7
2018-Jul-15 15:14N 49°11' W 004°29'210.6
2018-Jul-15 15:00N 49°10' W 004°33'510.3
2018-Jul-15 14:30N 49°08' W 004°40'11 9.5
2018-Jul-15 13:18N 49°03' W 004°55'4 9.1
2018-Jul-15 12:54N 49°01' W 004°60'4 9.2
2018-Jul-15 12:30N 48°59' W 005°04'5 9.0
2018-Jul-15 12:00N 48°57' W 005°10'4 8.8
2018-Jul-15 11:30N 48°54' W 005°16'4 9.0
2018-Jul-15 11:00N 48°52' W 005°22'5 9.2
2018-Jul-15 10:30N 48°49' W 005°28'5 9.6
2018-Jul-15 10:00N 48°47' W 005°34'5 9.7
2018-Jul-15 09:30N 48°44' W 005°39'5 9.7
2018-Jul-15 09:00N 48°40' W 005°44'510.2
2018-Jul-15 08:30N 48°36' W 005°49'510.3
2018-Jul-15 07:59N 48°31' W 005°53'6912.0
2018-Jul-15 02:12N 47°33' W 006°48'511.7
2018-Jul-15 01:44N 47°28' W 006°52'1210.8
2018-Jul-15 00:38N 47°17' W 007°01'710.9
2018-Jul-15 00:02N 47°12' W 007°07'  

Dump ship's entire track history